sensor_id;sensor_type;location;lat;lon;timestamp;pressure;altitude;pressure_sealevel;temperature;humidity
71889;BME280;59762;49.998;14.858;2023-03-16T00:00:45;97848.63;;;-1.05;100.00
71889;BME280;59762;49.998;14.858;2023-03-16T00:03:18;97856.63;;;-1.08;100.00
71889;BME280;59762;49.998;14.858;2023-03-16T00:05:47;97855.25;;;-1.15;100.00
71889;BME280;59762;49.998;14.858;2023-03-16T00:08:15;97849.03;;;-1.12;100.00
71889;BME280;59762;49.998;14.858;2023-03-16T00:10:42;97864.28;;;-1.20;100.00
71889;BME280;59762;49.998;14.858;2023-03-16T00:13:18;97856.41;;;-1.20;100.00
71889;BME280;59762;49.998;14.858;2023-03-16T00:15:54;97863.59;;;-1.24;100.00
71889;BME280;59762;49.998;14.858;2023-03-16T00:18:22;97857.47;;;-1.24;100.00
71889;BME280;59762;49.998;14.858;2023-03-16T00:20:56;97870.34;;;-1.20;100.00
71889;BME280;59762;49.998;14.858;2023-03-16T00:23:22;97866.72;;;-1.34;100.00
71889;BME280;59762;49.998;14.858;2023-03-16T00:25:53;97866.28;;;-1.25;100.00
71889;BME280;59762;49.998;14.858;2023-03-16T00:28:20;97864.78;;;-1.31;100.00
71889;BME280;59762;49.998;14.858;2023-03-16T00:30:46;97857.78;;;-1.47;100.00
71889;BME280;59762;49.998;14.858;2023-03-16T00:33:12;97858.84;;;-1.51;100.00
71889;BME280;59762;49.998;14.858;2023-03-16T00:35:38;97860.09;;;-1.41;100.00
71889;BME280;59762;49.998;14.858;2023-03-16T00:38:03;97861.94;;;-1.43;100.00
71889;BME280;59762;49.998;14.858;2023-03-16T00:40:29;97863.63;;;-1.42;100.00
71889;BME280;59762;49.998;14.858;2023-03-16T00:42:55;97859.22;;;-1.42;100.00
71889;BME280;59762;49.998;14.858;2023-03-16T00:45:21;97863.25;;;-1.35;100.00
71889;BME280;59762;49.998;14.858;2023-03-16T00:47:47;97859.41;;;-1.45;100.00
71889;BME280;59762;49.998;14.858;2023-03-16T00:50:14;97865.19;;;-1.38;100.00
71889;BME280;59762;49.998;14.858;2023-03-16T00:52:40;97875.09;;;-1.45;100.00
71889;BME280;59762;49.998;14.858;2023-03-16T00:55:07;97867.88;;;-1.40;100.00
71889;BME280;59762;49.998;14.858;2023-03-16T00:57:33;97870.56;;;-1.41;100.00
71889;BME280;59762;49.998;14.858;2023-03-16T00:59:59;97872.50;;;-1.45;100.00
71889;BME280;59762;49.998;14.858;2023-03-16T01:02:27;97870.16;;;-1.51;100.00
71889;BME280;59762;49.998;14.858;2023-03-16T01:04:53;97863.28;;;-1.53;100.00
71889;BME280;59762;49.998;14.858;2023-03-16T01:07:18;97866.28;;;-1.61;100.00
71889;BME280;59762;49.998;14.858;2023-03-16T01:09:45;97873.03;;;-1.74;100.00
71889;BME280;59762;49.998;14.858;2023-03-16T01:12:14;97868.28;;;-1.66;100.00
71889;BME280;59762;49.998;14.858;2023-03-16T01:14:40;97874.66;;;-1.71;100.00
71889;BME280;59762;49.998;14.858;2023-03-16T01:17:08;97873.44;;;-1.64;100.00
71889;BME280;59762;49.998;14.858;2023-03-16T01:19:35;97872.91;;;-1.89;100.00
71889;BME280;59762;49.998;14.858;2023-03-16T01:22:03;97872.16;;;-1.74;100.00
71889;BME280;59762;49.998;14.858;2023-03-16T01:24:29;97877.28;;;-1.71;100.00
71889;BME280;59762;49.998;14.858;2023-03-16T01:26:55;97874.09;;;-1.78;100.00
71889;BME280;59762;49.998;14.858;2023-03-16T01:29:21;97874.09;;;-1.78;100.00
71889;BME280;59762;49.998;14.858;2023-03-16T01:31:47;97874.94;;;-1.77;100.00
71889;BME280;59762;49.998;14.858;2023-03-16T01:34:15;97875.72;;;-1.75;100.00
71889;BME280;59762;49.998;14.858;2023-03-16T01:36:45;97874.97;;;-1.96;100.00
71889;BME280;59762;49.998;14.858;2023-03-16T01:39:11;97881.81;;;-1.93;100.00
71889;BME280;59762;49.998;14.858;2023-03-16T01:41:38;97885.13;;;-1.90;100.00
71889;BME280;59762;49.998;14.858;2023-03-16T01:44:04;97885.94;;;-1.88;100.00
71889;BME280;59762;49.998;14.858;2023-03-16T01:46:30;97878.19;;;-1.72;100.00
71889;BME280;59762;49.998;14.858;2023-03-16T01:51:54;97880.25;;;-1.79;100.00
71889;BME280;59762;49.998;14.858;2023-03-16T01:59:37;97878.84;;;-1.86;100.00
71889;BME280;59762;49.998;14.858;2023-03-16T02:02:05;97877.78;;;-1.82;100.00
71889;BME280;59762;49.998;14.858;2023-03-16T02:07:27;97887.06;;;-1.93;100.00
71889;BME280;59762;49.998;14.858;2023-03-16T02:09:57;97889.09;;;-1.81;100.00
71889;BME280;59762;49.998;14.858;2023-03-16T02:12:23;97891.28;;;-1.91;100.00
71889;BME280;59762;49.998;14.858;2023-03-16T02:14:50;97894.75;;;-1.90;100.00
71889;BME280;59762;49.998;14.858;2023-03-16T02:17:19;97891.72;;;-2.00;100.00
71889;BME280;59762;49.998;14.858;2023-03-16T02:22:13;97904.22;;;-2.06;100.00
71889;BME280;59762;49.998;14.858;2023-03-16T02:24:41;97903.94;;;-2.00;100.00
71889;BME280;59762;49.998;14.858;2023-03-16T02:27:12;97900.75;;;-2.07;100.00
71889;BME280;59762;49.998;14.858;2023-03-16T02:29:55;97897.31;;;-2.07;100.00
71889;BME280;59762;49.998;14.858;2023-03-16T02:32:24;97901.13;;;-1.96;100.00
71889;BME280;59762;49.998;14.858;2023-03-16T02:34:51;97902.94;;;-1.98;100.00
71889;BME280;59762;49.998;14.858;2023-03-16T02:37:16;97907.22;;;-1.95;100.00
71889;BME280;59762;49.998;14.858;2023-03-16T02:39:42;97903.19;;;-2.02;100.00
71889;BME280;59762;49.998;14.858;2023-03-16T02:42:12;97909.59;;;-2.09;100.00
71889;BME280;59762;49.998;14.858;2023-03-16T02:44:42;97909.03;;;-1.97;100.00
71889;BME280;59762;49.998;14.858;2023-03-16T02:47:40;97916.88;;;-1.97;100.00
71889;BME280;59762;49.998;14.858;2023-03-16T02:50:08;97917.75;;;-1.97;100.00
71889;BME280;59762;49.998;14.858;2023-03-16T02:52:35;97918.88;;;-2.02;100.00
71889;BME280;59762;49.998;14.858;2023-03-16T02:55:03;97915.06;;;-1.95;100.00
71889;BME280;59762;49.998;14.858;2023-03-16T02:57:29;97913.78;;;-2.05;100.00
71889;BME280;59762;49.998;14.858;2023-03-16T02:59:56;97919.63;;;-2.00;100.00
71889;BME280;59762;49.998;14.858;2023-03-16T03:02:22;97915.56;;;-2.06;100.00
71889;BME280;59762;49.998;14.858;2023-03-16T03:04:48;97922.34;;;-2.02;100.00
71889;BME280;59762;49.998;14.858;2023-03-16T03:07:14;97927.41;;;-2.17;100.00
71889;BME280;59762;49.998;14.858;2023-03-16T03:09:41;97925.34;;;-2.29;100.00
71889;BME280;59762;49.998;14.858;2023-03-16T03:12:08;97930.31;;;-2.23;100.00
71889;BME280;59762;49.998;14.858;2023-03-16T03:14:34;97934.03;;;-2.29;100.00
71889;BME280;59762;49.998;14.858;2023-03-16T03:17:07;97932.97;;;-2.25;100.00
71889;BME280;59762;49.998;14.858;2023-03-16T03:19:34;97936.66;;;-2.29;100.00
71889;BME280;59762;49.998;14.858;2023-03-16T03:22:02;97929.53;;;-2.25;100.00
71889;BME280;59762;49.998;14.858;2023-03-16T03:24:32;97932.63;;;-2.17;100.00
71889;BME280;59762;49.998;14.858;2023-03-16T03:26:58;97934.25;;;-2.33;100.00
71889;BME280;59762;49.998;14.858;2023-03-16T03:29:31;97940.81;;;-2.25;100.00
71889;BME280;59762;49.998;14.858;2023-03-16T03:32:05;97945.28;;;-2.27;100.00
71889;BME280;59762;49.998;14.858;2023-03-16T03:34:31;97940.75;;;-2.23;100.00
71889;BME280;59762;49.998;14.858;2023-03-16T03:36:58;97942.38;;;-2.21;100.00
71889;BME280;59762;49.998;14.858;2023-03-16T03:39:24;97938.94;;;-2.21;100.00
71889;BME280;59762;49.998;14.858;2023-03-16T03:41:49;97954.06;;;-2.28;100.00
71889;BME280;59762;49.998;14.858;2023-03-16T03:44:20;97954.63;;;-2.21;100.00
71889;BME280;59762;49.998;14.858;2023-03-16T03:46:46;97948.25;;;-2.34;100.00
71889;BME280;59762;49.998;14.858;2023-03-16T03:49:12;97950.66;;;-2.30;100.00
71889;BME280;59762;49.998;14.858;2023-03-16T03:51:38;97957.38;;;-2.44;100.00
71889;BME280;59762;49.998;14.858;2023-03-16T03:54:06;97950.88;;;-2.34;100.00
71889;BME280;59762;49.998;14.858;2023-03-16T03:56:31;97950.94;;;-2.36;100.00
71889;BME280;59762;49.998;14.858;2023-03-16T03:58:57;97950.88;;;-2.34;100.00
71889;BME280;59762;49.998;14.858;2023-03-16T04:01:23;97943.84;;;-2.34;100.00
71889;BME280;59762;49.998;14.858;2023-03-16T04:03:49;97943.03;;;-2.34;100.00
71889;BME280;59762;49.998;14.858;2023-03-16T04:06:15;97945.53;;;-2.33;100.00
71889;BME280;59762;49.998;14.858;2023-03-16T04:08:41;97951.13;;;-2.40;100.00
71889;BME280;59762;49.998;14.858;2023-03-16T04:11:06;97949.41;;;-2.41;100.00
71889;BME280;59762;49.998;14.858;2023-03-16T04:13:32;97966.22;;;-2.47;100.00
71889;BME280;59762;49.998;14.858;2023-03-16T04:15:59;97960.88;;;-2.44;100.00
71889;BME280;59762;49.998;14.858;2023-03-16T04:18:27;97968.72;;;-2.44;100.00
71889;BME280;59762;49.998;14.858;2023-03-16T04:20:52;97963.72;;;-2.50;100.00
71889;BME280;59762;49.998;14.858;2023-03-16T04:23:19;97966.44;;;-2.51;100.00
71889;BME280;59762;49.998;14.858;2023-03-16T04:25:45;97964.25;;;-2.42;100.00
71889;BME280;59762;49.998;14.858;2023-03-16T04:28:12;97967.72;;;-2.41;100.00
71889;BME280;59762;49.998;14.858;2023-03-16T04:30:38;97968.88;;;-2.48;100.00
71889;BME280;59762;49.998;14.858;2023-03-16T04:33:03;97966.22;;;-2.47;100.00
71889;BME280;59762;49.998;14.858;2023-03-16T04:35:29;97967.78;;;-2.43;100.00
71889;BME280;59762;49.998;14.858;2023-03-16T04:37:56;97973.00;;;-2.43;100.00
71889;BME280;59762;49.998;14.858;2023-03-16T04:40:22;97975.44;;;-2.38;100.00
71889;BME280;59762;49.998;14.858;2023-03-16T04:42:48;97980.78;;;-2.41;100.00
71889;BME280;59762;49.998;14.858;2023-03-16T04:45:15;97990.41;;;-2.42;100.00
71889;BME280;59762;49.998;14.858;2023-03-16T04:47:42;97985.16;;;-2.42;100.00
71889;BME280;59762;49.998;14.858;2023-03-16T04:50:08;97989.63;;;-2.44;100.00
71889;BME280;59762;49.998;14.858;2023-03-16T04:52:35;97984.25;;;-2.61;100.00
71889;BME280;59762;49.998;14.858;2023-03-16T04:55:00;97985.94;;;-2.60;100.00
71889;BME280;59762;49.998;14.858;2023-03-16T04:57:26;97985.63;;;-2.52;100.00
71889;BME280;59762;49.998;14.858;2023-03-16T04:59:51;97988.50;;;-2.58;100.00
71889;BME280;59762;49.998;14.858;2023-03-16T05:02:17;97991.72;;;-2.52;100.00
71889;BME280;59762;49.998;14.858;2023-03-16T05:04:44;97994.38;;;-2.53;100.00
71889;BME280;59762;49.998;14.858;2023-03-16T05:07:10;97990.78;;;-2.51;100.00
71889;BME280;59762;49.998;14.858;2023-03-16T05:09:36;97997.00;;;-2.53;100.00
71889;BME280;59762;49.998;14.858;2023-03-16T05:12:01;97993.84;;;-2.61;100.00
71889;BME280;59762;49.998;14.858;2023-03-16T05:14:27;97994.44;;;-2.55;100.00
71889;BME280;59762;49.998;14.858;2023-03-16T05:16:53;97996.28;;;-2.57;100.00
71889;BME280;59762;49.998;14.858;2023-03-16T05:19:18;97993.41;;;-2.71;100.00
71889;BME280;59762;49.998;14.858;2023-03-16T05:21:44;97994.50;;;-2.76;100.00
71889;BME280;59762;49.998;14.858;2023-03-16T05:24:10;98002.28;;;-2.75;100.00
71889;BME280;59762;49.998;14.858;2023-03-16T05:26:36;97998.59;;;-2.69;100.00
71889;BME280;59762;49.998;14.858;2023-03-16T05:29:02;97996.94;;;-2.52;100.00
71889;BME280;59762;49.998;14.858;2023-03-16T05:31:28;97997.28;;;-2.59;100.00
71889;BME280;59762;49.998;14.858;2023-03-16T05:33:57;97993.63;;;-2.55;100.00
71889;BME280;59762;49.998;14.858;2023-03-16T05:36:23;97989.97;;;-2.51;100.00
71889;BME280;59762;49.998;14.858;2023-03-16T05:38:49;98000.84;;;-2.42;100.00
71889;BME280;59762;49.998;14.858;2023-03-16T05:41:15;97991.19;;;-2.40;100.00
71889;BME280;59762;49.998;14.858;2023-03-16T05:43:43;97992.53;;;-2.31;100.00
71889;BME280;59762;49.998;14.858;2023-03-16T05:46:09;97989.88;;;-2.10;100.00
71889;BME280;59762;49.998;14.858;2023-03-16T05:48:35;97992.72;;;-2.16;100.00
71889;BME280;59762;49.998;14.858;2023-03-16T05:51:01;97994.81;;;-2.04;100.00
71889;BME280;59762;49.998;14.858;2023-03-16T05:53:33;97996.38;;;-2.00;100.00
71889;BME280;59762;49.998;14.858;2023-03-16T05:56:00;98006.50;;;-1.92;100.00
71889;BME280;59762;49.998;14.858;2023-03-16T05:58:26;98002.28;;;-1.76;100.00
71889;BME280;59762;49.998;14.858;2023-03-16T06:00:52;98000.31;;;-1.71;100.00
71889;BME280;59762;49.998;14.858;2023-03-16T06:03:20;98003.19;;;-1.59;100.00
71889;BME280;59762;49.998;14.858;2023-03-16T06:05:47;98010.34;;;-1.44;100.00
71889;BME280;59762;49.998;14.858;2023-03-16T06:08:12;98004.00;;;-1.38;100.00
71889;BME280;59762;49.998;14.858;2023-03-16T06:10:40;98009.91;;;-1.16;100.00
71889;BME280;59762;49.998;14.858;2023-03-16T06:13:05;98016.97;;;-1.18;100.00
71889;BME280;59762;49.998;14.858;2023-03-16T06:15:31;98012.53;;;-1.16;100.00
71889;BME280;59762;49.998;14.858;2023-03-16T06:17:57;98019.81;;;-1.04;100.00
71889;BME280;59762;49.998;14.858;2023-03-16T06:20:23;98015.84;;;-0.94;100.00
71889;BME280;59762;49.998;14.858;2023-03-16T06:22:48;98018.88;;;-0.85;100.00
71889;BME280;59762;49.998;14.858;2023-03-16T06:25:14;98017.97;;;-0.67;100.00
71889;BME280;59762;49.998;14.858;2023-03-16T06:27:40;98015.50;;;-0.53;100.00
71889;BME280;59762;49.998;14.858;2023-03-16T06:30:08;98009.63;;;-0.41;100.00
71889;BME280;59762;49.998;14.858;2023-03-16T06:32:34;98012.47;;;-0.28;99.28
71889;BME280;59762;49.998;14.858;2023-03-16T06:35:01;98023.03;;;-0.13;97.05
71889;BME280;59762;49.998;14.858;2023-03-16T06:37:28;98026.81;;;-0.01;98.53
71889;BME280;59762;49.998;14.858;2023-03-16T06:39:54;98031.66;;;0.06;98.00
71889;BME280;59762;49.998;14.858;2023-03-16T06:42:20;98029.47;;;0.14;93.40
71889;BME280;59762;49.998;14.858;2023-03-16T06:44:46;98027.91;;;0.28;95.56
71889;BME280;59762;49.998;14.858;2023-03-16T06:47:12;98031.25;;;0.31;92.48
71889;BME280;59762;49.998;14.858;2023-03-16T06:49:38;98030.84;;;0.39;92.00
71889;BME280;59762;49.998;14.858;2023-03-16T06:52:04;98032.41;;;0.58;93.75
71889;BME280;59762;49.998;14.858;2023-03-16T06:54:30;98035.38;;;0.68;92.00
71889;BME280;59762;49.998;14.858;2023-03-16T06:56:58;98032.47;;;0.72;91.49
71889;BME280;59762;49.998;14.858;2023-03-16T06:59:24;98051.66;;;0.74;89.02
71889;BME280;59762;49.998;14.858;2023-03-16T07:01:50;98045.63;;;0.88;89.84
71889;BME280;59762;49.998;14.858;2023-03-16T07:04:16;98050.72;;;0.60;86.57
71889;BME280;59762;49.998;14.858;2023-03-16T07:06:41;98051.09;;;0.52;87.06
71889;BME280;59762;49.998;14.858;2023-03-16T07:09:07;98056.19;;;0.55;88.28
71889;BME280;59762;49.998;14.858;2023-03-16T07:11:33;98052.25;;;0.79;90.17
71889;BME280;59762;49.998;14.858;2023-03-16T07:13:59;98063.16;;;0.72;87.61
71889;BME280;59762;49.998;14.858;2023-03-16T07:16:26;98061.47;;;0.71;88.73
71889;BME280;59762;49.998;14.858;2023-03-16T07:18:52;98063.03;;;1.06;88.38
71889;BME280;59762;49.998;14.858;2023-03-16T07:21:18;98061.94;;;1.10;86.24
71889;BME280;59762;49.998;14.858;2023-03-16T07:23:44;98068.19;;;0.92;82.59
71889;BME280;59762;49.998;14.858;2023-03-16T07:26:10;98069.72;;;0.96;84.64
71889;BME280;59762;49.998;14.858;2023-03-16T07:28:39;98071.78;;;1.22;85.17
71889;BME280;59762;49.998;14.858;2023-03-16T07:31:05;98065.03;;;1.47;85.29
71889;BME280;59762;49.998;14.858;2023-03-16T07:33:32;98066.06;;;1.45;83.88
71889;BME280;59762;49.998;14.858;2023-03-16T07:35:58;98067.69;;;1.16;82.32
71889;BME280;59762;49.998;14.858;2023-03-16T07:38:24;98072.19;;;0.99;83.48
71889;BME280;59762;49.998;14.858;2023-03-16T07:40:50;98075.06;;;0.94;83.41
71889;BME280;59762;49.998;14.858;2023-03-16T07:43:18;98070.38;;;1.30;81.10
71889;BME280;59762;49.998;14.858;2023-03-16T07:45:51;98070.38;;;1.30;84.61
71889;BME280;59762;49.998;14.858;2023-03-16T07:48:17;98067.53;;;1.64;83.40
71889;BME280;59762;49.998;14.858;2023-03-16T07:50:45;98072.78;;;1.80;82.15
71889;BME280;59762;49.998;14.858;2023-03-16T07:53:11;98070.06;;;1.36;80.38
71889;BME280;59762;49.998;14.858;2023-03-16T07:55:38;98071.81;;;1.96;82.10
71889;BME280;59762;49.998;14.858;2023-03-16T07:58:04;98078.97;;;1.79;82.16
71889;BME280;59762;49.998;14.858;2023-03-16T08:00:31;98074.78;;;1.90;80.19
71889;BME280;59762;49.998;14.858;2023-03-16T08:02:57;98072.69;;;2.11;80.35
71889;BME280;59762;49.998;14.858;2023-03-16T08:05:23;98071.59;;;2.29;80.86
71889;BME280;59762;49.998;14.858;2023-03-16T08:07:49;98073.38;;;2.28;80.99
71889;BME280;59762;49.998;14.858;2023-03-16T08:10:16;98074.72;;;2.49;76.73
71889;BME280;59762;49.998;14.858;2023-03-16T08:12:42;98081.31;;;1.99;76.67
71889;BME280;59762;49.998;14.858;2023-03-16T08:15:09;98077.66;;;2.01;78.10
71889;BME280;59762;49.998;14.858;2023-03-16T08:17:35;98070.72;;;2.14;80.21
71889;BME280;59762;49.998;14.858;2023-03-16T08:20:04;98076.78;;;2.44;77.17
71889;BME280;59762;49.998;14.858;2023-03-16T08:22:35;98075.38;;;2.39;77.11
71889;BME280;59762;49.998;14.858;2023-03-16T08:25:02;98083.03;;;2.57;78.38
71889;BME280;59762;49.998;14.858;2023-03-16T08:27:29;98073.03;;;2.62;80.28
71889;BME280;59762;49.998;14.858;2023-03-16T08:29:55;98068.50;;;2.92;74.54
71889;BME280;59762;49.998;14.858;2023-03-16T08:32:21;98071.06;;;2.94;73.87
71889;BME280;59762;49.998;14.858;2023-03-16T08:34:46;98072.84;;;2.65;76.76
71889;BME280;59762;49.998;14.858;2023-03-16T08:37:13;98073.78;;;2.78;79.16
71889;BME280;59762;49.998;14.858;2023-03-16T08:39:42;98078.56;;;3.00;78.09
71889;BME280;59762;49.998;14.858;2023-03-16T08:42:09;98082.06;;;3.00;79.82
71889;BME280;59762;49.998;14.858;2023-03-16T08:44:35;98088.13;;;3.29;81.17
71889;BME280;59762;49.998;14.858;2023-03-16T08:47:02;98074.72;;;3.46;79.39
71889;BME280;59762;49.998;14.858;2023-03-16T08:49:29;98083.66;;;3.70;79.25
71889;BME280;59762;49.998;14.858;2023-03-16T08:51:55;98085.72;;;3.12;75.10
71889;BME280;59762;49.998;14.858;2023-03-16T08:54:21;98083.38;;;3.48;77.27
71889;BME280;59762;49.998;14.858;2023-03-16T08:56:47;98078.88;;;3.36;75.06
71889;BME280;59762;49.998;14.858;2023-03-16T08:59:13;98082.25;;;3.64;74.44
71889;BME280;59762;49.998;14.858;2023-03-16T09:01:38;98086.78;;;3.50;74.41
71889;BME280;59762;49.998;14.858;2023-03-16T09:04:04;98087.13;;;3.97;74.09
71889;BME280;59762;49.998;14.858;2023-03-16T09:06:33;98080.94;;;4.23;72.27
71889;BME280;59762;49.998;14.858;2023-03-16T09:09:00;98088.56;;;3.76;71.46
71889;BME280;59762;49.998;14.858;2023-03-16T09:11:26;98085.47;;;3.69;73.12
71889;BME280;59762;49.998;14.858;2023-03-16T09:13:54;98085.94;;;4.27;76.61
71889;BME280;59762;49.998;14.858;2023-03-16T09:16:20;98078.31;;;3.84;76.30
71889;BME280;59762;49.998;14.858;2023-03-16T09:18:50;98080.13;;;3.57;73.93
71889;BME280;59762;49.998;14.858;2023-03-16T09:21:16;98089.91;;;3.69;72.38
71889;BME280;59762;49.998;14.858;2023-03-16T09:23:42;98092.03;;;4.15;74.44
71889;BME280;59762;49.998;14.858;2023-03-16T09:26:09;98093.56;;;4.44;70.97
71889;BME280;59762;49.998;14.858;2023-03-16T09:28:37;98101.34;;;4.08;69.06
71889;BME280;59762;49.998;14.858;2023-03-16T09:31:04;98097.03;;;3.81;70.29
71889;BME280;59762;49.998;14.858;2023-03-16T09:33:30;98105.16;;;4.29;69.71
71889;BME280;59762;49.998;14.858;2023-03-16T09:35:57;98108.09;;;4.12;72.01
71889;BME280;59762;49.998;14.858;2023-03-16T09:38:24;98104.34;;;3.37;68.03
71889;BME280;59762;49.998;14.858;2023-03-16T09:48:55;98114.66;;;4.07;67.92
71889;BME280;59762;49.998;14.858;2023-03-16T09:53:49;98115.78;;;4.54;68.23
71889;BME280;59762;49.998;14.858;2023-03-16T09:56:19;98110.06;;;4.48;65.19
71889;BME280;59762;49.998;14.858;2023-03-16T09:58:46;98116.88;;;4.13;65.99
71889;BME280;59762;49.998;14.858;2023-03-16T10:06:38;98119.53;;;4.25;65.12
71889;BME280;59762;49.998;14.858;2023-03-16T10:09:36;98107.63;;;3.67;61.31
71889;BME280;59762;49.998;14.858;2023-03-16T10:12:05;98109.63;;;4.29;64.50
71889;BME280;59762;49.998;14.858;2023-03-16T10:14:46;98116.84;;;4.39;65.64
71889;BME280;59762;49.998;14.858;2023-03-16T10:17:25;98114.41;;;4.49;64.43
71889;BME280;59762;49.998;14.858;2023-03-16T10:20:05;98117.50;;;4.68;62.29
71889;BME280;59762;49.998;14.858;2023-03-16T10:22:37;98117.47;;;4.55;61.64
71889;BME280;59762;49.998;14.858;2023-03-16T10:25:25;98110.69;;;4.51;60.95
71889;BME280;59762;49.998;14.858;2023-03-16T10:27:52;98113.53;;;4.36;61.77
71889;BME280;59762;49.998;14.858;2023-03-16T10:30:27;98110.63;;;4.78;57.73
71889;BME280;59762;49.998;14.858;2023-03-16T10:32:54;98111.56;;;4.64;57.28
71889;BME280;59762;49.998;14.858;2023-03-16T10:35:52;98113.59;;;4.86;60.09
71889;BME280;59762;49.998;14.858;2023-03-16T10:46:13;98107.94;;;4.53;61.21
71889;BME280;59762;49.998;14.858;2023-03-16T10:48:39;98102.88;;;4.75;61.39
71889;BME280;59762;49.998;14.858;2023-03-16T10:51:12;98103.75;;;4.75;60.18
71889;BME280;59762;49.998;14.858;2023-03-16T10:53:42;98103.31;;;4.94;61.00
71889;BME280;59762;49.998;14.858;2023-03-16T10:56:18;98109.03;;;5.00;62.35
71889;BME280;59762;49.998;14.858;2023-03-16T10:58:45;98104.03;;;5.08;58.60
71889;BME280;59762;49.998;14.858;2023-03-16T11:01:25;98103.00;;;4.61;60.03
71889;BME280;59762;49.998;14.858;2023-03-16T11:03:53;98098.56;;;4.61;58.75
71889;BME280;59762;49.998;14.858;2023-03-16T11:08:45;98095.28;;;4.70;60.46
71889;BME280;59762;49.998;14.858;2023-03-16T11:11:17;98094.00;;;4.63;58.17
71889;BME280;59762;49.998;14.858;2023-03-16T11:13:46;98094.94;;;4.75;61.28
71889;BME280;59762;49.998;14.858;2023-03-16T11:18:54;98090.13;;;5.30;59.63
71889;BME280;59762;49.998;14.858;2023-03-16T11:21:59;98089.25;;;5.29;60.61
71889;BME280;59762;49.998;14.858;2023-03-16T11:27:22;98086.38;;;4.21;63.26
71889;BME280;59762;49.998;14.858;2023-03-16T11:30:08;98093.66;;;4.55;63.06
71889;BME280;59762;49.998;14.858;2023-03-16T11:32:39;98080.88;;;4.37;61.75
71889;BME280;59762;49.998;14.858;2023-03-16T11:35:18;98078.44;;;4.84;60.46
71889;BME280;59762;49.998;14.858;2023-03-16T11:45:56;98057.09;;;5.23;60.15
71889;BME280;59762;49.998;14.858;2023-03-16T11:48:39;98057.28;;;5.32;58.81
71889;BME280;59762;49.998;14.858;2023-03-16T11:51:44;98057.50;;;4.81;57.40
71889;BME280;59762;49.998;14.858;2023-03-16T11:59:59;98051.13;;;5.32;58.01
71889;BME280;59762;49.998;14.858;2023-03-16T12:11:11;98038.38;;;5.13;55.72
71889;BME280;59762;49.998;14.858;2023-03-16T12:16:22;98036.28;;;5.06;59.19
71889;BME280;59762;49.998;14.858;2023-03-16T12:21:25;98046.31;;;4.52;56.92
71889;BME280;59762;49.998;14.858;2023-03-16T12:23:55;98042.78;;;4.64;57.85
71889;BME280;59762;49.998;14.858;2023-03-16T12:26:25;98043.19;;;4.96;56.18
71889;BME280;59762;49.998;14.858;2023-03-16T12:28:55;98026.00;;;5.37;56.92
71889;BME280;59762;49.998;14.858;2023-03-16T12:31:43;98029.63;;;5.00;56.42
71889;BME280;59762;49.998;14.858;2023-03-16T12:34:26;98027.06;;;5.35;56.44
71889;BME280;59762;49.998;14.858;2023-03-16T12:37:08;98028.53;;;5.15;57.09
71889;BME280;59762;49.998;14.858;2023-03-16T12:45:03;98034.16;;;5.11;56.81
71889;BME280;59762;49.998;14.858;2023-03-16T12:50:58;98023.16;;;5.64;55.70
71889;BME280;59762;49.998;14.858;2023-03-16T12:53:53;98012.19;;;5.68;55.70
71889;BME280;59762;49.998;14.858;2023-03-16T12:56:27;98015.59;;;5.47;53.19
71889;BME280;59762;49.998;14.858;2023-03-16T12:58:58;98018.19;;;5.83;55.04
71889;BME280;59762;49.998;14.858;2023-03-16T13:01:28;98015.81;;;5.67;53.05
71889;BME280;59762;49.998;14.858;2023-03-16T13:04:23;98013.66;;;5.72;54.59
71889;BME280;59762;49.998;14.858;2023-03-16T13:07:22;98010.53;;;5.91;55.10
71889;BME280;59762;49.998;14.858;2023-03-16T13:10:06;98022.09;;;5.90;53.47
71889;BME280;59762;49.998;14.858;2023-03-16T13:12:37;98018.34;;;5.69;52.61
71889;BME280;59762;49.998;14.858;2023-03-16T13:18:01;98015.13;;;6.00;51.35
71889;BME280;59762;49.998;14.858;2023-03-16T13:20:29;98013.19;;;5.91;53.11
71889;BME280;59762;49.998;14.858;2023-03-16T13:25:45;98007.78;;;6.03;54.01
71889;BME280;59762;49.998;14.858;2023-03-16T13:28:29;98009.13;;;6.09;51.55
71889;BME280;59762;49.998;14.858;2023-03-16T13:30:56;98005.09;;;5.92;52.18
71889;BME280;59762;49.998;14.858;2023-03-16T13:33:35;98000.78;;;5.91;52.18
71889;BME280;59762;49.998;14.858;2023-03-16T13:36:03;98002.25;;;5.48;54.57
71889;BME280;59762;49.998;14.858;2023-03-16T13:38:30;97993.03;;;5.88;52.14
71889;BME280;59762;49.998;14.858;2023-03-16T13:41:10;97996.00;;;5.49;53.93
71889;BME280;59762;49.998;14.858;2023-03-16T13:43:45;97987.28;;;5.71;52.97
71889;BME280;59762;49.998;14.858;2023-03-16T13:46:14;97992.22;;;5.41;51.81
71889;BME280;59762;49.998;14.858;2023-03-16T13:48:41;97993.09;;;5.76;52.99
71889;BME280;59762;49.998;14.858;2023-03-16T13:51:13;97995.28;;;5.47;53.21
71889;BME280;59762;49.998;14.858;2023-03-16T13:53:41;97988.22;;;5.35;54.75
71889;BME280;59762;49.998;14.858;2023-03-16T13:56:15;97985.66;;;5.10;53.67
71889;BME280;59762;49.998;14.858;2023-03-16T13:58:45;97978.81;;;5.55;53.40
71889;BME280;59762;49.998;14.858;2023-03-16T14:01:25;97979.13;;;5.27;54.45
71889;BME280;59762;49.998;14.858;2023-03-16T14:03:54;97978.13;;;5.17;52.71
71889;BME280;59762;49.998;14.858;2023-03-16T14:06:26;97979.81;;;5.41;54.41
71889;BME280;59762;49.998;14.858;2023-03-16T14:08:56;97978.22;;;5.15;53.62
71889;BME280;59762;49.998;14.858;2023-03-16T14:11:26;97969.97;;;5.43;53.68
71889;BME280;59762;49.998;14.858;2023-03-16T14:13:54;97967.78;;;5.72;52.92
71889;BME280;59762;49.998;14.858;2023-03-16T14:16:25;97967.94;;;5.23;53.90
71889;BME280;59762;49.998;14.858;2023-03-16T14:19:06;97974.81;;;4.90;53.24
71889;BME280;59762;49.998;14.858;2023-03-16T14:21:33;97972.44;;;5.10;53.78
71889;BME280;59762;49.998;14.858;2023-03-16T14:24:02;97962.50;;;5.01;53.69
71889;BME280;59762;49.998;14.858;2023-03-16T14:26:42;97957.22;;;5.25;51.34